createdAt,value
2022-08-03T00:02:17.979Z,14.25
2022-08-03T00:04:46.358Z,13.57
2022-08-03T00:07:13.952Z,16.98
2022-08-03T00:09:41.682Z,11.77
2022-08-03T00:12:09.377Z,36.33
2022-08-03T00:14:37.058Z,37.85
2022-08-03T00:17:04.858Z,30.92
2022-08-03T00:19:32.455Z,33.85
2022-08-03T00:22:00.036Z,37.80
2022-08-03T00:24:27.964Z,46.00
2022-08-03T00:26:55.543Z,30.73
2022-08-03T00:29:23.192Z,16.83
2022-08-03T00:31:52.434Z,19.92
2022-08-03T00:34:30.955Z,15.75
2022-08-03T00:37:14.496Z,17.27
2022-08-03T00:39:45.943Z,16.75
2022-08-03T00:42:13.817Z,18.90
2022-08-03T00:44:42.617Z,25.98
2022-08-03T00:47:11.162Z,18.30
2022-08-03T00:49:39.662Z,15.32
2022-08-03T00:52:12.435Z,13.05
2022-08-03T00:54:40.110Z,15.10
2022-08-03T00:57:07.836Z,14.73
2022-08-03T00:59:35.702Z,14.05
2022-08-03T01:02:03.251Z,15.85
2022-08-03T01:04:30.801Z,15.80
2022-08-03T01:07:02.941Z,16.17
2022-08-03T01:09:49.357Z,15.25
2022-08-03T01:12:25.515Z,19.77
2022-08-03T01:14:59.317Z,16.75
2022-08-03T01:17:31.855Z,18.48
2022-08-03T01:20:10.243Z,19.05
2022-08-03T01:22:45.839Z,17.48
2022-08-03T01:25:32.725Z,14.32
2022-08-03T01:28:19.362Z,17.27
2022-08-03T01:30:47.389Z,18.20
2022-08-03T01:33:22.758Z,12.98
2022-08-03T01:36:01.307Z,15.23
2022-08-03T01:38:36.599Z,13.88
2022-08-03T01:41:09.463Z,15.07
2022-08-03T01:44:28.397Z,15.13
2022-08-03T01:46:26.173Z,17.58
2022-08-03T01:48:54.605Z,16.15
2022-08-03T01:51:23.115Z,13.35
2022-08-03T01:53:51.479Z,12.98
2022-08-03T01:56:20.868Z,15.32
2022-08-03T01:58:49.973Z,18.45
2022-08-03T02:01:17.922Z,19.13
2022-08-03T02:03:59.576Z,24.42
2022-08-03T02:07:00.194Z,17.48
2022-08-03T02:09:20.711Z,15.27
2022-08-03T02:11:48.380Z,15.25
2022-08-03T02:14:16.850Z,16.05
2022-08-03T02:16:45.982Z,18.60
2022-08-03T02:19:14.731Z,17.58
2022-08-03T02:21:57.068Z,17.55
2022-08-03T02:24:28.455Z,17.77
2022-08-03T02:26:57.048Z,17.67
2022-08-03T02:29:39.629Z,15.95
2022-08-03T02:32:11.249Z,14.65
2022-08-03T02:34:39.904Z,18.73
2022-08-03T02:37:08.450Z,19.15
2022-08-03T02:39:36.429Z,14.45
2022-08-03T02:42:05.495Z,17.15
2022-08-03T02:44:34.301Z,19.63
2022-08-03T02:47:08.189Z,13.30
2022-08-03T02:49:50.103Z,16.92
2022-08-03T02:52:20.673Z,14.57
2022-08-03T02:54:49.556Z,15.43
2022-08-03T02:57:19.394Z,17.05
2022-08-03T02:59:47.748Z,15.07
2022-08-03T03:02:16.565Z,14.82
2022-08-03T03:05:53.654Z,17.27
2022-08-03T03:07:34.655Z,18.73
2022-08-03T03:10:20.027Z,15.43
2022-08-03T03:12:47.906Z,19.02
2022-08-03T03:15:15.510Z,15.25
2022-08-03T03:17:43.957Z,15.43
2022-08-03T03:20:12.575Z,13.65
2022-08-03T03:22:40.969Z,19.83
2022-08-03T03:25:13.124Z,20.35
2022-08-03T03:27:40.831Z,21.58
2022-08-03T03:30:08.737Z,17.02
2022-08-03T03:32:37.008Z,18.42
2022-08-03T03:35:05.412Z,18.42
2022-08-03T03:37:32.934Z,20.35
2022-08-03T03:40:00.732Z,19.45
2022-08-03T03:42:28.395Z,19.33
2022-08-03T03:44:55.950Z,20.30
2022-08-03T03:47:32.648Z,17.27
2022-08-03T03:50:00.892Z,17.63
2022-08-03T03:52:28.875Z,23.38
2022-08-03T03:55:00.487Z,29.48
2022-08-03T03:57:29.463Z,22.33
2022-08-03T03:59:57.775Z,25.52
2022-08-03T04:02:25.522Z,20.92
2022-08-03T04:05:11.906Z,18.15
2022-08-03T04:08:05.831Z,15.93
2022-08-03T04:10:53.379Z,20.83
2022-08-03T04:13:22.482Z,13.48
2022-08-03T04:15:50.907Z,15.68
2022-08-03T04:18:19.375Z,16.38
2022-08-03T04:20:48.499Z,12.65
2022-08-03T04:23:17.261Z,17.70
2022-08-03T04:25:45.176Z,17.65
2022-08-03T04:28:30.807Z,16.42
2022-08-03T04:31:04.097Z,16.92
2022-08-03T04:33:36.126Z,18.63
2022-08-03T04:36:05.834Z,17.95
2022-08-03T04:38:35.238Z,14.65
2022-08-03T04:41:02.987Z,12.98
2022-08-03T04:43:33.631Z,15.45
2022-08-03T04:46:04.544Z,22.00
2022-08-03T04:48:34.387Z,18.13
2022-08-03T04:51:04.486Z,16.75
2022-08-03T04:53:34.251Z,17.98
2022-08-03T04:56:07.253Z,12.57
2022-08-03T04:58:37.063Z,13.10
2022-08-03T05:01:06.189Z,11.50
2022-08-03T05:03:35.089Z,11.60
2022-08-03T05:06:10.995Z,13.68
2022-08-03T05:08:46.110Z,9.85
2022-08-03T05:11:17.743Z,10.13
2022-08-03T05:13:46.384Z,9.95
2022-08-03T05:16:15.222Z,8.80
2022-08-03T05:18:43.876Z,8.52
2022-08-03T05:21:14.105Z,9.68
2022-08-03T05:23:41.477Z,9.90
2022-08-03T05:26:12.103Z,6.13
2022-08-03T05:28:40.594Z,7.45
2022-08-03T05:31:20.074Z,7.70
2022-08-03T05:33:49.445Z,9.25
2022-08-03T05:36:18.501Z,6.45
2022-08-03T05:38:47.394Z,6.65
2022-08-03T05:41:21.785Z,7.75
2022-08-03T05:43:53.876Z,6.43
2022-08-03T05:46:22.364Z,5.53
2022-08-03T05:48:50.033Z,10.15
2022-08-03T05:51:17.477Z,8.55
2022-08-03T05:53:45.121Z,6.57
2022-08-03T05:56:15.926Z,9.90
2022-08-03T05:58:46.003Z,7.43
2022-08-03T06:01:14.399Z,6.43
2022-08-03T06:03:43.080Z,5.85
2022-08-03T06:06:12.043Z,9.05
2022-08-03T06:08:41.233Z,5.93
2022-08-03T06:11:09.949Z,5.15
2022-08-03T06:13:39.027Z,7.20
2022-08-03T06:16:07.531Z,6.15
2022-08-03T06:18:36.666Z,5.57
2022-08-03T06:21:11.047Z,7.75
2022-08-03T06:23:54.498Z,5.30
2022-08-03T06:26:28.837Z,7.10
2022-08-03T06:28:57.475Z,5.63
2022-08-03T06:31:33.044Z,5.13
2022-08-03T06:34:32.954Z,6.55
2022-08-03T06:36:52.963Z,5.57
2022-08-03T06:39:23.592Z,5.43
2022-08-03T06:41:52.324Z,5.63
2022-08-03T06:44:21.145Z,5.47
2022-08-03T06:46:49.303Z,8.57
2022-08-03T06:49:18.919Z,6.05
2022-08-03T06:52:03.767Z,9.02
2022-08-03T06:54:35.703Z,6.70
2022-08-03T06:57:04.331Z,5.40
2022-08-03T07:00:09.188Z,5.03
2022-08-03T07:02:21.652Z,8.73
2022-08-03T07:04:50.563Z,7.22
2022-08-03T07:07:20.603Z,4.97
2022-08-03T07:09:56.616Z,6.88
2022-08-03T07:12:26.195Z,5.82
2022-08-03T07:14:58.178Z,9.00
2022-08-03T07:17:28.965Z,6.63
2022-08-03T07:19:57.089Z,5.32
2022-08-03T07:22:25.859Z,5.53
2022-08-03T07:24:54.483Z,8.60
2022-08-03T07:27:23.299Z,6.60
2022-08-03T07:29:51.331Z,7.43
2022-08-03T07:32:19.646Z,6.30
2022-08-03T07:34:48.038Z,6.78
2022-08-03T07:37:18.627Z,4.93
2022-08-03T07:39:46.371Z,4.55
2022-08-03T07:42:16.626Z,8.25
2022-08-03T07:44:45.063Z,4.78
2022-08-03T07:47:16.564Z,5.60
2022-08-03T07:49:51.454Z,5.38
2022-08-03T07:52:39.436Z,5.07
2022-08-03T07:55:07.901Z,5.85
2022-08-03T07:57:36.190Z,4.97
2022-08-03T08:00:05.944Z,5.03
2022-08-03T08:02:42.856Z,5.80
2022-08-03T08:05:11.013Z,3.97
2022-08-03T08:07:39.030Z,5.18
2022-08-03T08:10:07.873Z,5.07
2022-08-03T08:12:35.409Z,6.53
2022-08-03T08:15:03.046Z,6.53
2022-08-03T08:17:30.827Z,4.13
2022-08-03T08:19:58.426Z,3.70
2022-08-03T08:22:30.609Z,4.53
2022-08-03T08:25:01.265Z,6.80
2022-08-03T08:28:31.370Z,5.18
2022-08-03T08:30:20.343Z,4.32
2022-08-03T08:32:49.394Z,6.50
2022-08-03T08:35:18.212Z,3.23
2022-08-03T08:37:51.035Z,6.73
2022-08-03T08:40:21.901Z,4.63
2022-08-03T08:42:58.526Z,5.35
2022-08-03T08:45:28.063Z,4.50
2022-08-03T08:48:01.701Z,2.67
2022-08-03T08:50:30.714Z,5.30
2022-08-03T08:53:01.068Z,6.78
2022-08-03T08:55:28.722Z,2.80
2022-08-03T08:58:04.031Z,3.28
2022-08-03T09:00:32.041Z,4.15
2022-08-03T09:02:59.812Z,5.20
2022-08-03T09:05:53.924Z,10.02
2022-08-03T09:08:15.885Z,5.38
2022-08-03T09:10:43.439Z,5.15
2022-08-03T09:13:11.236Z,4.18
2022-08-03T09:15:39.236Z,4.88
2022-08-03T09:18:06.999Z,3.33
2022-08-03T09:20:36.739Z,2.42
2022-08-03T09:23:20.239Z,3.75
2022-08-03T09:25:59.888Z,7.57
2022-08-03T09:28:59.987Z,4.43
2022-08-03T09:31:29.849Z,5.22
2022-08-03T09:34:01.036Z,6.85
2022-08-03T09:36:43.269Z,5.97
2022-08-03T09:39:15.413Z,4.85
2022-08-03T09:41:44.458Z,6.10
2022-08-03T09:44:24.427Z,3.53
2022-08-03T09:46:57.269Z,5.10
2022-08-03T09:49:25.486Z,21.60
2022-08-03T09:52:33.607Z,4.97
2022-08-03T09:54:41.341Z,4.93
2022-08-03T09:57:09.212Z,5.90
2022-08-03T09:59:38.084Z,3.30
2022-08-03T10:02:24.334Z,8.98
2022-08-03T10:04:52.839Z,5.57
2022-08-03T10:07:22.448Z,3.90
2022-08-03T10:10:29.036Z,7.57
2022-08-03T10:12:58.423Z,4.88
2022-08-03T10:16:25.184Z,5.95
2022-08-03T10:18:14.457Z,8.38
2022-08-03T10:20:47.011Z,4.95
2022-08-03T10:23:15.328Z,5.18
2022-08-03T10:25:44.785Z,8.30
2022-08-03T10:28:13.961Z,4.25
2022-08-03T10:30:45.311Z,4.00
2022-08-03T10:33:51.532Z,3.13
2022-08-03T10:36:09.033Z,3.17
2022-08-03T10:38:38.884Z,5.57
2022-08-03T10:41:07.293Z,5.75
2022-08-03T10:43:39.886Z,2.97
2022-08-03T10:46:08.856Z,3.20
2022-08-03T10:48:36.983Z,3.67
2022-08-03T10:51:04.993Z,3.55
2022-08-03T10:53:36.508Z,3.00
2022-08-03T10:56:36.822Z,5.68
2022-08-03T10:59:10.729Z,3.67
2022-08-03T11:01:58.075Z,4.88
2022-08-03T11:04:27.176Z,4.15
2022-08-03T11:07:29.359Z,6.25
2022-08-03T11:09:57.499Z,4.07
2022-08-03T11:12:31.383Z,5.85
2022-08-03T11:15:04.843Z,6.32
2022-08-03T11:17:46.573Z,6.35
2022-08-03T11:20:41.460Z,6.32
2022-08-03T11:23:09.264Z,5.35
2022-08-03T11:25:55.916Z,5.70
2022-08-03T11:28:30.829Z,4.15
2022-08-03T11:31:39.161Z,5.75
2022-08-03T11:34:06.111Z,4.40
2022-08-03T11:36:52.298Z,4.72
2022-08-03T11:39:20.075Z,4.43
2022-08-03T11:41:47.690Z,5.20
2022-08-03T11:44:33.815Z,3.55
2022-08-03T11:47:01.560Z,6.32
2022-08-03T11:49:29.217Z,5.40
2022-08-03T11:51:56.798Z,4.97
2022-08-03T11:54:25.803Z,4.90
2022-08-03T11:56:53.398Z,7.07
2022-08-03T11:59:32.759Z,5.20
2022-08-03T12:02:10.066Z,5.07
2022-08-03T12:04:50.941Z,5.35
2022-08-03T12:08:02.719Z,7.30
2022-08-03T12:10:08.185Z,6.75
2022-08-03T12:12:36.277Z,5.72
2022-08-03T12:15:04.709Z,7.13
2022-08-03T12:17:36.678Z,6.95
2022-08-03T12:20:05.696Z,4.45
2022-08-03T12:22:40.659Z,4.43
2022-08-03T12:25:09.692Z,9.10
2022-08-03T12:27:37.361Z,4.03
2022-08-03T12:30:05.223Z,7.93
2022-08-03T12:32:34.357Z,6.22
2022-08-03T12:35:04.471Z,3.85
2022-08-03T12:39:07.314Z,7.35
2022-08-03T12:40:28.362Z,6.68
2022-08-03T12:42:56.161Z,5.55
2022-08-03T12:45:24.037Z,5.03
2022-08-03T12:47:52.518Z,4.90
2022-08-03T12:50:31.351Z,7.07
2022-08-03T12:53:00.340Z,6.75
2022-08-03T12:55:57.855Z,6.80
2022-08-03T12:58:35.134Z,5.63
2022-08-03T13:01:09.490Z,5.55
2022-08-03T13:03:49.559Z,7.28
2022-08-03T13:06:22.547Z,6.80
2022-08-03T13:08:51.820Z,7.30
2022-08-03T13:11:20.561Z,4.30
2022-08-03T13:13:48.247Z,4.65
2022-08-03T13:16:19.346Z,5.68
2022-08-03T13:18:48.061Z,5.22
2022-08-03T13:21:17.066Z,5.25
2022-08-03T13:23:44.779Z,4.43
2022-08-03T13:26:12.661Z,5.32
2022-08-03T13:28:40.520Z,4.95
2022-08-03T13:31:08.374Z,6.00
2022-08-03T13:33:36.047Z,4.75
2022-08-03T13:36:03.979Z,4.85
2022-08-03T13:38:32.636Z,6.18
2022-08-03T13:41:01.784Z,6.22
2022-08-03T13:43:32.971Z,6.03
2022-08-03T13:46:00.495Z,8.63
2022-08-03T13:48:36.796Z,8.48
2022-08-03T13:51:22.124Z,4.20
2022-08-03T13:53:51.486Z,4.88
2022-08-03T13:56:19.193Z,5.25
2022-08-03T13:58:46.856Z,8.35
2022-08-03T14:01:14.571Z,5.72
2022-08-03T14:03:42.440Z,5.30
2022-08-03T14:06:10.306Z,5.32
2022-08-03T14:08:37.915Z,6.45
2022-08-03T14:11:05.743Z,4.93
2022-08-03T14:13:33.530Z,5.10
2022-08-03T14:16:01.078Z,6.40
2022-08-03T14:18:33.875Z,5.38
2022-08-03T14:21:06.010Z,6.68
2022-08-03T14:23:38.280Z,5.53
2022-08-03T14:26:06.806Z,7.05
2022-08-03T14:28:34.589Z,9.25
2022-08-03T14:31:04.066Z,6.88
2022-08-03T14:33:35.987Z,7.07
2022-08-03T14:36:03.994Z,5.05
2022-08-03T14:38:31.618Z,6.55
2022-08-03T14:40:59.244Z,7.10
2022-08-03T14:43:27.346Z,8.35
2022-08-03T14:46:02.270Z,8.02
2022-08-03T14:50:29.294Z,7.07
2022-08-03T14:51:17.832Z,5.43
2022-08-03T14:53:46.571Z,10.98
2022-08-03T14:56:14.239Z,10.45
2022-08-03T14:58:41.924Z,8.00
2022-08-03T15:02:03.342Z,10.55
2022-08-03T15:03:57.437Z,8.60
2022-08-03T15:06:25.217Z,10.90
2022-08-03T15:09:22.690Z,24.17
2022-08-03T15:11:40.891Z,26.55
2022-08-03T15:14:09.508Z,13.52
2022-08-03T15:16:37.938Z,17.60
2022-08-03T15:20:03.461Z,10.50
2022-08-03T15:21:53.505Z,6.93
2022-08-03T15:24:21.322Z,7.97
2022-08-03T15:26:48.973Z,5.90
2022-08-03T15:30:08.881Z,6.90
2022-08-03T15:32:08.955Z,6.82
2022-08-03T15:34:37.229Z,7.82
2022-08-03T15:37:15.193Z,5.72
2022-08-03T15:39:59.176Z,7.75
2022-08-03T15:42:31.659Z,9.02
2022-08-03T15:44:59.529Z,6.47
2022-08-03T15:47:27.469Z,5.63
2022-08-03T15:49:55.488Z,6.07
2022-08-03T15:52:23.253Z,6.03
2022-08-03T15:54:50.887Z,7.00
2022-08-03T15:57:19.010Z,7.50
2022-08-03T15:59:46.892Z,6.25
2022-08-03T16:02:14.694Z,6.55
2022-08-03T16:04:42.697Z,6.57
2022-08-03T16:07:17.595Z,7.97
2022-08-03T16:09:45.431Z,6.00
2022-08-03T16:12:16.324Z,6.82
2022-08-03T16:14:54.668Z,8.75
2022-08-03T16:17:24.309Z,8.63
2022-08-03T16:19:54.746Z,6.50
2022-08-03T16:22:23.188Z,8.32
2022-08-03T16:24:51.879Z,5.80
2022-08-03T16:27:37.280Z,9.50
2022-08-03T16:30:08.547Z,6.95
2022-08-03T16:32:38.291Z,6.75
2022-08-03T16:35:06.498Z,7.95
2022-08-03T16:37:38.942Z,7.50
2022-08-03T16:40:09.352Z,8.25
2022-08-03T16:42:49.241Z,7.85
2022-08-03T16:45:16.948Z,7.68
2022-08-03T16:47:46.206Z,9.38
2022-08-03T16:50:33.791Z,6.10
2022-08-03T16:53:06.366Z,7.25
2022-08-03T16:55:48.885Z,6.78
2022-08-03T16:58:34.594Z,6.45
2022-08-03T17:01:22.476Z,5.68
2022-08-03T17:04:01.182Z,6.82
2022-08-03T17:06:34.464Z,6.38
2022-08-03T17:09:08.671Z,6.28
2022-08-03T17:11:46.723Z,12.40
2022-08-03T17:14:16.124Z,7.13
2022-08-03T17:16:52.234Z,10.02
2022-08-03T17:19:23.258Z,13.35
2022-08-03T17:22:01.723Z,10.48
2022-08-03T17:24:34.218Z,8.18
2022-08-03T17:27:08.873Z,8.23
2022-08-03T17:29:47.365Z,7.82
2022-08-03T17:32:21.484Z,8.57
2022-08-03T17:34:49.592Z,10.30
2022-08-03T17:37:27.327Z,9.15
2022-08-03T17:40:06.013Z,9.55
2022-08-03T17:42:34.871Z,11.38
2022-08-03T17:45:03.750Z,10.50
2022-08-03T17:47:42.838Z,12.00
2022-08-03T17:50:24.724Z,14.98
2022-08-03T17:53:07.455Z,11.80
2022-08-03T17:55:55.733Z,10.05
2022-08-03T17:58:41.266Z,9.82
2022-08-03T18:01:57.805Z,12.48
2022-08-03T18:04:30.175Z,9.35
2022-08-03T18:07:00.025Z,10.02
2022-08-03T18:10:04.730Z,8.60
2022-08-03T18:12:26.152Z,11.13
2022-08-03T18:15:01.230Z,7.95
2022-08-03T18:17:55.376Z,9.90
2022-08-03T18:20:34.438Z,10.15
2022-08-03T18:23:07.089Z,10.95
2022-08-03T18:25:45.519Z,11.27
2022-08-03T18:28:14.610Z,9.90
2022-08-03T18:30:53.080Z,10.48
2022-08-03T18:36:22.148Z,11.18
2022-08-03T18:41:32.921Z,10.82
2022-08-03T18:44:08.967Z,13.20
2022-08-03T18:46:50.517Z,11.52
2022-08-03T18:49:37.168Z,11.30
2022-08-03T18:52:18.561Z,11.35
2022-08-03T18:55:09.521Z,13.40
2022-08-03T18:57:54.211Z,17.83
2022-08-03T19:00:24.338Z,13.38
2022-08-03T19:03:09.232Z,12.52
2022-08-03T19:05:52.993Z,9.63
2022-08-03T19:08:37.203Z,10.02
2022-08-03T19:11:07.205Z,10.43
2022-08-03T19:13:50.365Z,21.27
2022-08-03T19:16:21.813Z,22.52
2022-08-03T19:18:50.388Z,33.22
2022-08-03T19:21:18.339Z,51.17
2022-08-03T19:23:47.901Z,65.90
2022-08-03T19:26:31.114Z,74.88
2022-08-03T19:28:59.422Z,40.35
2022-08-03T19:31:30.711Z,38.50
2022-08-03T19:34:00.363Z,50.03
2022-08-03T19:36:29.144Z,79.63
2022-08-03T19:38:57.627Z,97.00
2022-08-03T19:41:27.393Z,83.93
2022-08-03T19:44:00.394Z,93.65
2022-08-03T19:46:34.716Z,78.35
2022-08-03T19:49:10.708Z,70.55
2022-08-03T19:51:56.645Z,69.20
2022-08-03T19:54:36.493Z,56.38
2022-08-03T19:57:17.082Z,52.70
2022-08-03T19:59:50.003Z,38.50
2022-08-03T20:02:26.637Z,31.10
2022-08-03T20:04:57.219Z,26.90
2022-08-03T20:07:25.923Z,21.13
2022-08-03T20:09:56.682Z,14.30
2022-08-03T20:12:28.107Z,11.18
2022-08-03T20:17:54.032Z,12.93
2022-08-03T20:20:12.402Z,14.50
2022-08-03T20:22:43.136Z,12.95
2022-08-03T20:25:20.898Z,14.70
2022-08-03T20:28:06.939Z,16.80
2022-08-03T20:30:42.543Z,17.77
2022-08-03T20:33:10.839Z,20.65
2022-08-03T20:35:38.535Z,18.38
2022-08-03T20:38:09.829Z,16.45
2022-08-03T20:40:39.010Z,16.70
2022-08-03T20:43:09.327Z,17.58
2022-08-03T20:45:59.966Z,15.77
2022-08-03T20:48:27.297Z,11.48
2022-08-03T20:50:56.448Z,12.35
2022-08-03T20:53:59.876Z,13.23
2022-08-03T20:56:12.287Z,11.48
2022-08-03T20:58:42.999Z,11.75
2022-08-03T21:01:27.852Z,11.75
2022-08-03T21:04:06.961Z,15.38
2022-08-03T21:06:40.599Z,11.80
2022-08-03T21:09:12.551Z,16.58
2022-08-03T21:11:41.748Z,14.45
2022-08-03T21:12:58.400Z,9.23
2022-08-03T21:14:14.080Z,16.42
2022-08-03T21:16:44.631Z,18.85
2022-08-03T21:19:12.392Z,18.05
2022-08-03T21:21:40.022Z,19.17
2022-08-03T21:24:08.436Z,18.65
2022-08-03T21:26:39.305Z,28.58
2022-08-03T21:29:08.213Z,22.23
2022-08-03T21:31:36.125Z,17.75
2022-08-03T21:34:05.335Z,18.90
2022-08-03T21:36:34.190Z,15.00
2022-08-03T21:39:02.861Z,16.05
2022-08-03T21:41:31.484Z,15.70
2022-08-03T21:43:59.738Z,19.98
2022-08-03T21:46:28.235Z,22.35
2022-08-03T21:49:51.861Z,25.73
2022-08-03T21:51:45.923Z,24.70
2022-08-03T21:54:13.958Z,25.60
2022-08-03T21:56:42.435Z,23.80
2022-08-03T21:59:15.163Z,16.58
2022-08-03T22:01:43.267Z,18.20
2022-08-03T22:04:12.044Z,15.38
2022-08-03T22:06:59.309Z,15.20
2022-08-03T22:09:29.370Z,16.95
2022-08-03T22:11:57.142Z,16.85
2022-08-03T22:14:26.035Z,17.50
2022-08-03T22:16:53.890Z,17.63
2022-08-03T22:19:21.594Z,17.00
2022-08-03T22:21:50.066Z,17.33
2022-08-03T22:24:19.882Z,19.52
2022-08-03T22:27:13.260Z,16.67
2022-08-03T22:29:42.673Z,16.23
2022-08-03T22:32:10.519Z,18.45
2022-08-03T22:34:38.548Z,19.13
2022-08-03T22:37:07.126Z,18.42
2022-08-03T22:39:35.970Z,17.10
2022-08-03T22:42:05.786Z,19.42
2022-08-03T22:44:35.927Z,19.70
2022-08-03T22:47:04.768Z,17.67
2022-08-03T22:49:32.990Z,19.17
2022-08-03T22:52:01.529Z,19.85
2022-08-03T22:54:32.053Z,17.20
2022-08-03T22:56:59.982Z,17.08
2022-08-03T22:59:47.465Z,18.30
2022-08-03T23:02:20.750Z,18.73
2022-08-03T23:04:51.390Z,20.75
2022-08-03T23:07:26.047Z,20.13
2022-08-03T23:09:56.421Z,20.90
2022-08-03T23:12:24.276Z,21.08
2022-08-03T23:15:01.140Z,18.15
2022-08-03T23:17:30.683Z,21.25
2022-08-03T23:20:08.896Z,21.88
2022-08-03T23:22:39.681Z,22.83
2022-08-03T23:25:11.381Z,19.23
2022-08-03T23:27:42.796Z,20.15
2022-08-03T23:30:11.073Z,21.65
2022-08-03T23:32:39.004Z,21.80
2022-08-03T23:36:29.738Z,22.52
2022-08-03T23:38:22.940Z,19.30
2022-08-03T23:40:51.526Z,21.65
2022-08-03T23:43:51.653Z,23.95
2022-08-03T23:46:09.655Z,22.05
2022-08-03T23:48:37.287Z,21.58
2022-08-03T23:51:09.917Z,21.33
2022-08-03T23:53:48.099Z,21.15
2022-08-03T23:56:21.887Z,22.98
2022-08-03T23:59:14.841Z,20.15
